Time;durP1;ratioP1;P1;durP2;ratioP2;P2;SDS_P1;SDS_P2;PMS_P1;PMS_P2;Temp;Humidity;BMP_temperature;BMP_pressure;BME280_temperature;BME280_humidity;BME280_pressure;Samples;Min_cycle;Max_cycle;Signal;HPM_P1;HPM_P2
2021/06/23 00:00:57;;;;;;;96.72;87.35;;;;;;;;;;4137966;34;20380;-95
2021/06/23 00:03:41;;;;;;;85.15;77.07;;;;;;;;;;4127970;34;20165;-94
2021/06/23 00:06:14;;;;;;;81.70;74.32;;;;;;;;;;4125695;34;20085;-92
2021/06/23 00:08:51;;;;;;;81.82;74.00;;;;;;;;;;4129751;34;20061;-94
2021/06/23 00:11:22;;;;;;;98.15;88.22;;;;;;;;;;4127698;34;20072;-95
2021/06/23 00:13:52;;;;;;;98.68;89.18;;;;;;;;;;4126652;34;20476;-95
2021/06/23 00:16:30;;;;;;;100.15;90.53;;;;;;;;;;4126840;34;20547;-95
2021/06/23 00:19:13;;;;;;;97.88;88.20;;;;;;;;;;4126079;34;20111;-94
2021/06/23 00:21:53;;;;;;;104.63;92.68;;;;;;;;;;4126877;34;20118;-93
2021/06/23 00:24:28;;;;;;;102.55;92.10;;;;;;;;;;4117424;34;20164;-94
2021/06/23 00:27:19;;;;;;;94.72;85.90;;;;;;;;;;4124639;34;20147;-95
2021/06/23 00:30:12;;;;;;;102.40;92.82;;;;;;;;;;4127936;34;20119;-95
2021/06/23 00:32:49;;;;;;;102.65;93.15;;;;;;;;;;4120678;34;20788;-94
2021/06/23 00:35:21;;;;;;;96.70;88.07;;;;;;;;;;4136245;34;20136;-94
2021/06/23 00:37:54;;;;;;;93.47;85.57;;;;;;;;;;4124080;34;20065;-94
2021/06/23 00:40:46;;;;;;;98.72;88.85;;;;;;;;;;4127073;34;20073;-94
2021/06/23 00:43:19;;;;;;;96.80;86.30;;;;;;;;;;4129212;34;20115;-94
2021/06/23 00:45:49;;;;;;;80.32;72.43;;;;;;;;;;4128684;34;20112;-95
2021/06/23 00:48:31;;;;;;;83.28;74.82;;;;;;;;;;4127536;34;20114;-94
2021/06/23 00:51:15;;;;;;;102.93;92.43;;;;;;;;;;4126925;34;20061;-94
2021/06/23 00:53:58;;;;;;;107.22;95.75;;;;;;;;;;4128630;34;20086;-94
2021/06/23 00:56:33;;;;;;;100.78;90.38;;;;;;;;;;4135154;34;20080;-94
2021/06/23 00:59:12;;;;;;;102.10;91.68;;;;;;;;;;4135573;34;20064;-93
2021/06/23 01:01:42;;;;;;;101.38;91.07;;;;;;;;;;4127108;34;20065;-94
2021/06/23 01:04:18;;;;;;;102.70;92.37;;;;;;;;;;4133703;34;20337;-95
2021/06/23 01:06:51;;;;;;;102.20;93.65;;;;;;;;;;4125193;34;20072;-95
2021/06/23 01:09:24;;;;;;;92.05;84.10;;;;;;;;;;4114476;34;20084;-93
2021/06/23 01:12:16;;;;;;;89.22;81.00;;;;;;;;;;4113946;34;20091;-95
2021/06/23 01:14:51;;;;;;;89.07;81.47;;;;;;;;;;4118078;34;20097;-93
2021/06/23 01:17:21;;;;;;;86.93;79.12;;;;;;;;;;4128023;34;20046;-95
2021/06/23 01:20:03;;;;;;;102.15;92.40;;;;;;;;;;4127604;34;20061;-93
2021/06/23 01:22:39;;;;;;;103.75;93.30;;;;;;;;;;4129098;34;20104;-96
2021/06/23 01:25:14;;;;;;;103.60;93.05;;;;;;;;;;4116310;34;20112;-93
2021/06/23 01:27:56;;;;;;;104.03;93.97;;;;;;;;;;4125773;34;20092;-94
2021/06/23 01:30:32;;;;;;;105.15;94.68;;;;;;;;;;4119471;34;20077;-93
2021/06/23 01:33:08;;;;;;;104.65;93.90;;;;;;;;;;4125989;34;20722;-94
2021/06/23 01:35:40;;;;;;;102.45;92.20;;;;;;;;;;4118669;34;20091;-93
2021/06/23 01:38:13;;;;;;;103.18;92.95;;;;;;;;;;4128683;34;20173;-96
2021/06/23 01:40:42;;;;;;;85.43;77.30;;;;;;;;;;4139152;34;20075;-94
2021/06/23 01:43:34;;;;;;;83.37;75.65;;;;;;;;;;4131487;34;20626;-96
2021/06/23 01:46:14;;;;;;;91.87;83.45;;;;;;;;;;4128067;34;20139;-95
2021/06/23 01:48:43;;;;;;;88.40;80.07;;;;;;;;;;4116544;34;20173;-95
2021/06/23 01:51:18;;;;;;;80.50;73.47;;;;;;;;;;4139585;34;20056;-94
2021/06/23 01:54:00;;;;;;;78.82;72.22;;;;;;;;;;4138306;34;20179;-96
2021/06/23 01:56:33;;;;;;;91.63;82.68;;;;;;;;;;4128487;34;20057;-95
2021/06/23 01:59:03;;;;;;;78.75;71.32;;;;;;;;;;4125546;34;20065;-93
2021/06/23 02:01:44;;;;;;;76.30;69.07;;;;;;;;;;4119124;34;20089;-94
2021/06/23 02:04:45;;;;;;;83.43;75.25;;;;;;;;;;4130325;34;20547;-93
2021/06/23 02:07:37;;;;;;;81.50;74.43;;;;;;;;;;4121247;34;20081;-94
2021/06/23 02:10:09;;;;;;;82.88;75.07;;;;;;;;;;4130584;34;20088;-95
2021/06/23 02:13:06;;;;;;;97.20;87.95;;;;;;;;;;4132516;34;20100;-94
2021/06/23 02:16:15;;;;;;;100.20;90.53;;;;;;;;;;4126978;34;20684;-94
2021/06/23 02:18:46;;;;;;;101.30;91.03;;;;;;;;;;4129825;34;20076;-95
2021/06/23 02:21:21;;;;;;;100.25;89.93;;;;;;;;;;4138011;34;20120;-95
2021/06/23 02:23:55;;;;;;;79.87;72.43;;;;;;;;;;4139406;34;20590;-94
2021/06/23 02:26:31;;;;;;;95.20;86.75;;;;;;;;;;4129014;34;20757;-95
2021/06/23 02:29:10;;;;;;;93.70;84.53;;;;;;;;;;4140938;34;20073;-96
2021/06/23 02:31:41;;;;;;;99.70;90.70;;;;;;;;;;4126991;34;20190;-95
2021/06/23 02:34:15;;;;;;;99.25;90.38;;;;;;;;;;4128589;34;20088;-94
2021/06/23 02:36:51;;;;;;;101.65;92.12;;;;;;;;;;4138919;34;20061;-94
2021/06/23 02:39:31;;;;;;;85.78;77.95;;;;;;;;;;4137529;34;20087;-94
2021/06/23 02:42:07;;;;;;;83.10;75.80;;;;;;;;;;4115883;34;20057;-93
2021/06/23 02:44:44;;;;;;;83.28;75.12;;;;;;;;;;4116601;34;20164;-95
2021/06/23 02:47:25;;;;;;;97.28;86.87;;;;;;;;;;4138387;34;20079;-94
2021/06/23 02:49:55;;;;;;;96.20;86.70;;;;;;;;;;4129258;34;20107;-94
2021/06/23 02:52:33;;;;;;;87.18;78.90;;;;;;;;;;4129311;34;20089;-94
2021/06/23 02:55:04;;;;;;;79.50;71.60;;;;;;;;;;4131243;34;20113;-96
2021/06/23 02:57:38;;;;;;;77.00;69.75;;;;;;;;;;4140532;34;20515;-95
2021/06/23 03:00:13;;;;;;;93.25;83.93;;;;;;;;;;4126697;34;20076;-95
2021/06/23 03:02:45;;;;;;;92.28;82.90;;;;;;;;;;4127214;34;20057;-94
2021/06/23 03:05:15;;;;;;;85.35;77.65;;;;;;;;;;4130406;34;20143;-96
2021/06/23 03:07:50;;;;;;;86.85;79.20;;;;;;;;;;4120496;34;20065;-94
2021/06/23 03:10:23;;;;;;;91.72;83.53;;;;;;;;;;4136802;34;20124;-94
2021/06/23 03:13:00;;;;;;;91.93;83.53;;;;;;;;;;4140321;34;20083;-96
2021/06/23 03:15:36;;;;;;;86.05;78.85;;;;;;;;;;4126608;34;20054;-95
2021/06/23 03:18:11;;;;;;;98.97;89.10;;;;;;;;;;4140389;34;20061;-94
2021/06/23 03:20:44;;;;;;;100.05;89.75;;;;;;;;;;4138188;34;20088;-94
2021/06/23 03:23:19;;;;;;;102.85;92.43;;;;;;;;;;4129708;34;20076;-94
2021/06/23 03:26:03;;;;;;;105.95;94.68;;;;;;;;;;4128567;34;20519;-93
2021/06/23 03:28:37;;;;;;;101.97;91.20;;;;;;;;;;4126451;34;20380;-94
2021/06/23 03:31:12;;;;;;;98.20;88.07;;;;;;;;;;4129411;34;20110;-96
2021/06/23 03:34:11;;;;;;;94.40;84.45;;;;;;;;;;4134704;34;20471;-96
2021/06/23 03:36:45;;;;;;;91.47;81.65;;;;;;;;;;4126976;34;20858;-94
2021/06/23 03:39:20;;;;;;;91.53;82.35;;;;;;;;;;4129839;34;20079;-96
2021/06/23 03:41:59;;;;;;;74.82;67.20;;;;;;;;;;4128606;34;20108;-93
2021/06/23 03:44:38;;;;;;;89.30;81.07;;;;;;;;;;4127074;34;20081;-95
2021/06/23 03:47:16;;;;;;;78.05;71.32;;;;;;;;;;4126565;34;20450;-96
2021/06/23 03:49:48;;;;;;;81.53;74.22;;;;;;;;;;4131077;34;20073;-95
2021/06/23 03:52:25;;;;;;;80.65;73.15;;;;;;;;;;4117781;34;20126;-95
2021/06/23 03:55:01;;;;;;;78.60;70.72;;;;;;;;;;4128803;34;20062;-96
2021/06/23 03:57:34;;;;;;;;;;;;;;;;;;4130993;34;20115;-94
2021/06/23 04:00:04;;;;;;;68.75;61.58;;;;;;;;;;4127353;34;19984;-94
2021/06/23 04:02:48;;;;;;;63.72;57.40;;;;;;;;;;4128752;34;20099;-94
2021/06/23 04:05:40;;;;;;;63.60;56.80;;;;;;;;;;4126278;34;20080;-95
2021/06/23 04:08:14;;;;;;;58.08;52.22;;;;;;;;;;4128272;34;20127;-92
2021/06/23 04:10:45;;;;;;;60.40;54.63;;;;;;;;;;4135899;34;20061;-95
2021/06/23 04:13:15;;;;;;;56.05;50.65;;;;;;;;;;4115954;34;20144;-95
2021/06/23 04:15:52;;;;;;;58.08;52.17;;;;;;;;;;4121965;34;20120;-94
2021/06/23 04:18:27;;;;;;;56.15;50.53;;;;;;;;;;4114729;34;20126;-93
2021/06/23 04:20:57;;;;;;;55.55;49.65;;;;;;;;;;4114398;34;20154;-94
2021/06/23 04:23:32;;;;;;;52.15;46.83;;;;;;;;;;4116397;34;20647;-94
2021/06/23 04:26:04;;;;;;;53.85;47.78;;;;;;;;;;4115507;34;20176;-94
2021/06/23 04:28:33;;;;;;;55.08;48.80;;;;;;;;;;4117143;34;20088;-95
2021/06/23 04:31:10;;;;;;;56.53;50.47;;;;;;;;;;4113481;34;20135;-93
2021/06/23 04:33:45;;;;;;;55.25;49.53;;;;;;;;;;4116849;34;20120;-95
2021/06/23 04:36:18;;;;;;;57.50;51.33;;;;;;;;;;4103834;34;20111;-95
2021/06/23 04:38:51;;;;;;;59.90;51.30;;;;;;;;;;4116581;34;20082;-94
2021/06/23 04:41:28;;;;;;;58.63;49.88;;;;;;;;;;4116136;34;20409;-93
2021/06/23 04:44:03;;;;;;;57.05;50.72;;;;;;;;;;4128159;34;20154;-96
2021/06/23 04:46:36;;;;;;;53.50;47.65;;;;;;;;;;4110838;34;20069;-94
2021/06/23 04:49:05;;;;;;;53.80;47.83;;;;;;;;;;4111766;34;20157;-94
2021/06/23 04:51:52;;;;;;;56.78;51.22;;;;;;;;;;4115162;34;20057;-94
2021/06/23 04:54:23;;;;;;;60.15;54.00;;;;;;;;;;4103009;34;20111;-94
2021/06/23 04:56:57;;;;;;;;;;;;;;;;;;4114638;34;20158;-96
2021/06/23 04:59:26;;;;;;;57.47;51.75;;;;;;;;;;4111071;34;19979;-96
2021/06/23 05:01:59;;;;;;;57.62;51.65;;;;;;;;;;4126597;34;20065;-94
2021/06/23 05:04:30;;;;;;;57.53;51.75;;;;;;;;;;4104101;34;20089;-95
2021/06/23 05:07:07;;;;;;;59.10;53.08;;;;;;;;;;4123748;34;20065;-94
2021/06/23 05:09:41;;;;;;;58.13;52.42;;;;;;;;;;4114918;34;20684;-92
2021/06/23 05:12:11;;;;;;;80.25;73.43;;;;;;;;;;4119891;34;20056;-95
2021/06/23 05:14:53;;;;;;;86.28;78.87;;;;;;;;;;4133914;34;20075;-94
2021/06/23 05:17:46;;;;;;;96.55;86.18;;;;;;;;;;4115458;34;20134;-94
2021/06/23 05:20:19;;;;;;;96.70;87.03;;;;;;;;;;4132348;34;20448;-94
2021/06/23 05:22:57;;;;;;;100.62;90.45;;;;;;;;;;4136248;34;20203;-95
2021/06/23 05:25:36;;;;;;;100.45;90.00;;;;;;;;;;4135358;34;20405;-94
2021/06/23 05:28:18;;;;;;;99.65;89.50;;;;;;;;;;4136687;34;20049;-94
2021/06/23 05:30:49;;;;;;;103.40;92.80;;;;;;;;;;4121456;34;20080;-95
2021/06/23 05:33:23;;;;;;;102.72;92.07;;;;;;;;;;4124766;34;20127;-93
2021/06/23 05:35:59;;;;;;;101.82;91.18;;;;;;;;;;4127099;34;20054;-93
2021/06/23 05:38:50;;;;;;;100.57;90.07;;;;;;;;;;4114651;34;20099;-94
2021/06/23 05:41:23;;;;;;;101.70;91.35;;;;;;;;;;4136854;34;20365;-94
2021/06/23 05:43:53;;;;;;;98.87;90.05;;;;;;;;;;4128079;34;20429;-94
2021/06/23 05:46:39;;;;;;;;;;;;;;;;;;;;;
2021/06/23 05:49:09;;;;;;;100.30;91.22;;;;;;;;;;4125744;34;20095;-93
2021/06/23 05:51:59;;;;;;;98.70;89.95;;;;;;;;;;4126779;34;20083;-95
2021/06/23 05:54:27;;;;;;;100.32;91.03;;;;;;;;;;4125584;34;20061;-94
2021/06/23 05:57:04;;;;;;;84.00;75.30;;;;;;;;;;4126724;34;20065;-94
2021/06/23 05:59:48;;;;;;;84.65;76.57;;;;;;;;;;4127790;34;20491;-94
2021/06/23 06:02:31;;;;;;;82.68;74.80;;;;;;;;;;4125096;34;20101;-94
2021/06/23 06:05:03;;;;;;;84.28;76.28;;;;;;;;;;4123722;34;20133;-94
2021/06/23 06:07:56;;;;;;;99.18;88.32;;;;;;;;;;4124043;34;20136;-95
2021/06/23 06:10:29;;;;;;;101.75;91.68;;;;;;;;;;4126980;34;20069;-93
2021/06/23 06:13:05;;;;;;;99.25;89.32;;;;;;;;;;4116567;34;20065;-94
2021/06/23 06:15:40;;;;;;;86.03;78.07;;;;;;;;;;4127493;34;20104;-93
2021/06/23 06:18:10;;;;;;;87.70;79.43;;;;;;;;;;4129649;34;20460;-92
2021/06/23 06:20:42;;;;;;;91.50;83.25;;;;;;;;;;4124997;34;20384;-93
2021/06/23 06:23:16;;;;;;;111.62;101.80;;;;;;;;;;4119219;34;20099;-93
2021/06/23 06:25:52;;;;;;;116.72;105.90;;;;;;;;;;4118432;34;20053;-94
2021/06/23 06:28:27;;;;;;;126.87;114.82;;;;;;;;;;4126875;34;20084;-96
2021/06/23 06:31:10;;;;;;;154.90;140.50;;;;;;;;;;4128951;34;20177;-96
2021/06/23 06:33:52;;;;;;;183.43;166.85;;;;;;;;;;4129010;34;20678;-95
2021/06/23 06:36:33;;;;;;;42.28;37.83;;;;;;;;;;4118261;34;20173;-94
2021/06/23 06:39:19;;;;;;;10.60;2.10;;;;;;;;;;4125811;34;20091;-95
2021/06/23 06:41:51;;;;;;;5.25;1.40;;;;;;;;;;4128371;34;20121;-96
2021/06/23 06:44:21;;;;;;;6.40;1.77;;;;;;;;;;4127988;34;20127;-96
2021/06/23 06:47:04;;;;;;;5.00;1.20;;;;;;;;;;4137693;34;20073;-95
2021/06/23 06:49:47;;;;;;;5.82;1.10;;;;;;;;;;4125190;34;20114;-95
2021/06/23 06:52:25;;;;;;;7.53;1.20;;;;;;;;;;4126569;34;20093;-94
2021/06/23 06:54:56;;;;;;;4.45;1.12;;;;;;;;;;4115944;34;20061;-95
2021/06/23 06:57:32;;;;;;;6.30;1.45;;;;;;;;;;4139001;34;20103;-96
2021/06/23 07:00:07;;;;;;;7.87;1.83;;;;;;;;;;4138042;34;20097;-95
2021/06/23 07:02:41;;;;;;;9.55;1.80;;;;;;;;;;4126913;34;20483;-94
2021/06/23 07:05:12;;;;;;;9.05;2.83;;;;;;;;;;4117282;34;20092;-94
2021/06/23 07:07:44;;;;;;;10.43;5.18;;;;;;;;;;4138166;34;21935;-94
2021/06/23 07:10:18;;;;;;;6.50;1.60;;;;;;;;;;4119779;34;20438;-94
2021/06/23 07:12:52;;;;;;;9.20;2.47;;;;;;;;;;4137989;34;20057;-95
2021/06/23 07:15:40;;;;;;;;;;;;;;;;;;;;;
2021/06/23 07:18:27;;;;;;;10.30;1.90;;;;;;;;;;4138485;34;20435;-96
2021/06/23 07:21:02;;;;;;;6.85;1.60;;;;;;;;;;4129276;34;20097;-96
2021/06/23 07:23:38;;;;;;;15.30;1.98;;;;;;;;;;4130354;34;20096;-94
2021/06/23 07:26:13;;;;;;;10.10;1.70;;;;;;;;;;4126916;34;20718;-94
2021/06/23 07:29:03;;;;;;;10.50;2.10;;;;;;;;;;4130671;34;20106;-96
2021/06/23 07:31:44;;;;;;;9.45;2.08;;;;;;;;;;4127360;34;20616;-94
2021/06/23 07:37:12;;;;;;;10.15;2.37;;;;;;;;;;4128036;34;20115;-93
2021/06/23 07:39:47;;;;;;;10.82;3.15;;;;;;;;;;4125910;34;20118;-95
2021/06/23 07:42:27;;;;;;;18.00;9.55;;;;;;;;;;4129035;34;20445;-96
2021/06/23 07:45:07;;;;;;;13.30;10.13;;;;;;;;;;4130582;34;20130;-96
2021/06/23 07:47:41;;;;;;;10.18;6.70;;;;;;;;;;4129658;34;20065;-94
2021/06/23 07:50:16;;;;;;;10.10;3.95;;;;;;;;;;4127123;34;20617;-95
2021/06/23 07:53:16;;;;;;;24.45;11.32;;;;;;;;;;4125990;34;20775;-96
2021/06/23 07:56:08;;;;;;;12.43;7.62;;;;;;;;;;4129083;34;20083;-95
2021/06/23 08:10:17;;;;;;;8.13;1.75;;;;;;;;;;4137326;34;20331;-96
2021/06/23 08:12:58;;;;;;;7.62;2.20;;;;;;;;;;4126749;34;20088;-94
2021/06/23 08:15:34;;;;;;;16.33;2.80;;;;;;;;;;4123625;34;20080;-93
2021/06/23 08:18:08;;;;;;;11.48;2.62;;;;;;;;;;4127340;34;20069;-93
2021/06/23 08:20:42;;;;;;;6.00;1.62;;;;;;;;;;4126662;34;20065;-95
2021/06/23 08:23:28;;;;;;;10.27;2.35;;;;;;;;;;4126349;34;20056;-94
2021/06/23 08:25:59;;;;;;;12.35;2.80;;;;;;;;;;4124022;34;20558;-93
2021/06/23 08:28:28;;;;;;;9.32;2.17;;;;;;;;;;4124615;34;20095;-94
2021/06/23 08:31:25;;;;;;;10.10;2.00;;;;;;;;;;4125977;34;20158;-96
2021/06/23 08:34:02;;;;;;;10.27;1.83;;;;;;;;;;4126510;34;20155;-95
2021/06/23 08:36:35;;;;;;;7.87;1.40;;;;;;;;;;4133102;34;20485;-95
2021/06/23 08:39:11;;;;;;;9.50;2.00;;;;;;;;;;4138663;34;20053;-96
2021/06/23 08:41:53;;;;;;;12.37;2.08;;;;;;;;;;4126255;34;20142;-95
2021/06/23 08:44:30;;;;;;;12.82;2.10;;;;;;;;;;4133279;34;20070;-94
2021/06/23 08:47:06;;;;;;;9.13;1.92;;;;;;;;;;4134352;34;20119;-94
2021/06/23 08:49:42;;;;;;;7.37;2.00;;;;;;;;;;4126543;34;20065;-93
2021/06/23 08:52:14;;;;;;;12.45;2.58;;;;;;;;;;4126306;34;20095;-93
2021/06/23 08:54:54;;;;;;;11.05;2.40;;;;;;;;;;4135284;34;20068;-95
2021/06/23 08:57:33;;;;;;;12.50;2.45;;;;;;;;;;4137197;34;20068;-96
2021/06/23 09:00:09;;;;;;;11.88;2.47;;;;;;;;;;4115824;34;20380;-94
2021/06/23 09:02:43;;;;;;;9.57;2.58;;;;;;;;;;4125900;34;20800;-96
2021/06/23 09:05:16;;;;;;;11.95;2.55;;;;;;;;;;4116621;34;20076;-95
2021/06/23 09:08:00;;;;;;;15.40;3.25;;;;;;;;;;4137935;34;20102;-95
2021/06/23 09:10:35;;;;;;;19.02;3.72;;;;;;;;;;4126233;34;20083;-93
2021/06/23 09:13:16;;;;;;;11.57;2.90;;;;;;;;;;4116175;34;20519;-95
2021/06/23 09:15:47;;;;;;;13.27;3.62;;;;;;;;;;4113630;34;20080;-93
2021/06/23 09:18:48;;;;;;;;;;;;;;;;;;;;;
2021/06/23 09:21:42;;;;;;;12.30;3.25;;;;;;;;;;4126284;34;20053;-94
2021/06/23 09:24:26;;;;;;;10.65;2.62;;;;;;;;;;4115658;34;20079;-96
2021/06/23 09:27:38;;;;;;;;;;;;;;;;;;;;;
2021/06/23 09:30:31;;;;;;;10.32;2.78;;;;;;;;;;4115872;34;20074;-95
2021/06/23 09:33:08;;;;;;;8.98;2.67;;;;;;;;;;4115267;34;20054;-95
2021/06/23 09:36:00;;;;;;;9.00;2.50;;;;;;;;;;4123043;34;20061;-96
2021/06/23 09:39:02;;;;;;;10.35;2.83;;;;;;;;;;4122212;34;20085;-94
2021/06/23 09:41:41;;;;;;;14.65;3.30;;;;;;;;;;4115552;34;20163;-96
2021/06/23 10:00:04;;;;;;;9.60;2.90;;;;;;;;;;4038416;35;20271;-96
2021/06/23 10:03:11;;;;;;;9.63;2.85;;;;;;;;;;4031884;35;20718;-95
2021/06/23 10:09:39;;;;;;;8.48;2.90;;;;;;;;;;4014849;35;20127;-96
2021/06/23 10:12:35;;;;;;;10.00;2.60;;;;;;;;;;4069362;35;20568;-96
2021/06/23 10:15:18;;;;;;;9.32;2.45;;;;;;;;;;4072098;35;20176;-94
2021/06/23 10:17:58;;;;;;;7.90;2.58;;;;;;;;;;4069906;35;20068;-96
2021/06/23 10:20:50;;;;;;;9.90;2.83;;;;;;;;;;4062413;35;20558;-96
2021/06/23 10:23:27;;;;;;;6.68;2.30;;;;;;;;;;4064332;35;20081;-95
2021/06/23 10:26:01;;;;;;;13.62;2.30;;;;;;;;;;4061728;35;20077;-94
2021/06/23 10:28:33;;;;;;;20.58;3.78;;;;;;;;;;4067354;35;20096;-94
2021/06/23 10:31:03;;;;;;;11.82;2.30;;;;;;;;;;4064620;35;20557;-95
2021/06/23 10:33:39;;;;;;;13.18;2.95;;;;;;;;;;4076914;35;20520;-95
2021/06/23 10:36:14;;;;;;;11.05;2.35;;;;;;;;;;4082761;34;20061;-96
2021/06/23 10:39:38;;;;;;;8.98;2.60;;;;;;;;;;4101720;34;20096;-94
2021/06/23 10:42:12;;;;;;;9.30;2.35;;;;;;;;;;4124760;34;20061;-95
2021/06/23 10:44:53;;;;;;;7.30;2.55;;;;;;;;;;4120342;34;20127;-96
2021/06/23 10:47:31;;;;;;;9.40;2.40;;;;;;;;;;4116854;34;20062;-96
2021/06/23 10:50:19;;;;;;;11.90;2.75;;;;;;;;;;4121121;34;20230;-96
2021/06/23 10:53:27;;;;;;;11.07;3.03;;;;;;;;;;4118158;34;20057;-95
2021/06/23 10:56:00;;;;;;;10.65;2.05;;;;;;;;;;4128021;34;20061;-93
2021/06/23 10:58:34;;;;;;;8.27;2.60;;;;;;;;;;4112660;34;20590;-94
2021/06/23 11:01:14;;;;;;;12.15;2.87;;;;;;;;;;4116295;34;20135;-96
2021/06/23 11:04:05;;;;;;;6.62;2.67;;;;;;;;;;4117404;34;20092;-95
2021/06/23 11:06:54;;;;;;;9.52;2.50;;;;;;;;;;4117152;34;20061;-94
2021/06/23 11:09:27;;;;;;;15.95;3.40;;;;;;;;;;4121307;34;20448;-96
2021/06/23 11:11:57;;;;;;;9.82;2.90;;;;;;;;;;4123452;34;20076;-96
2021/06/23 11:14:33;;;;;;;15.40;3.72;;;;;;;;;;4134994;34;20160;-93
2021/06/23 11:17:31;;;;;;;16.02;3.28;;;;;;;;;;4128934;34;20085;-94
2021/06/23 11:20:34;;;;;;;10.43;2.67;;;;;;;;;;4129443;34;20124;-93
2021/06/23 11:23:07;;;;;;;10.00;2.78;;;;;;;;;;4127904;34;20159;-94
2021/06/23 11:25:41;;;;;;;12.40;3.30;;;;;;;;;;4119506;34;20053;-94
2021/06/23 11:28:15;;;;;;;14.38;3.40;;;;;;;;;;4141429;34;20057;-94
2021/06/23 11:30:51;;;;;;;13.32;3.05;;;;;;;;;;4134890;34;20112;-94
2021/06/23 11:33:42;;;;;;;18.42;3.55;;;;;;;;;;4128104;34;20517;-96
2021/06/23 11:36:24;;;;;;;11.32;2.92;;;;;;;;;;4127275;34;20088;-96
2021/06/23 11:38:58;;;;;;;7.87;2.75;;;;;;;;;;4142546;34;20083;-95
2021/06/23 11:41:33;;;;;;;;;;;;;;;;;;4128397;34;20057;-95
2021/06/23 11:44:01;;;;;;;8.00;2.50;;;;;;;;;;4125438;34;20635;-95
2021/06/23 11:46:38;;;;;;;8.40;2.90;;;;;;;;;;4128050;34;20054;-96
2021/06/23 11:49:43;;;;;;;11.05;2.72;;;;;;;;;;4131242;34;20085;-96
2021/06/23 11:52:20;;;;;;;9.00;2.87;;;;;;;;;;4127193;34;20095;-95
2021/06/23 11:54:53;;;;;;;6.12;2.40;;;;;;;;;;4139203;34;20103;-96
2021/06/23 11:57:45;;;;;;;8.77;2.70;;;;;;;;;;4128492;34;20420;-96
2021/06/23 12:00:42;;;;;;;11.05;3.20;;;;;;;;;;4136349;34;20037;-95
2021/06/23 12:03:14;;;;;;;11.35;2.95;;;;;;;;;;4128877;34;20411;-96
2021/06/23 12:06:10;;;;;;;15.93;3.42;;;;;;;;;;4123826;34;20045;-95
2021/06/23 12:08:45;;;;;;;45.78;26.08;;;;;;;;;;4139413;34;20087;-96
2021/06/23 12:11:28;;;;;;;36.83;20.73;;;;;;;;;;4121152;34;20057;-95
2021/06/23 12:14:21;;;;;;;43.03;25.55;;;;;;;;;;4114537;34;20173;-96
2021/06/23 12:16:55;;;;;;;14.73;7.62;;;;;;;;;;4117952;34;20530;-96
2021/06/23 12:19:30;;;;;;;18.00;7.97;;;;;;;;;;4116563;34;20053;-95
2021/06/23 12:22:03;;;;;;;11.40;4.18;;;;;;;;;;4116461;34;20041;-95
2021/06/23 12:24:32;;;;;;;29.08;16.37;;;;;;;;;;4113600;34;20123;-96
2021/06/23 12:27:04;;;;;;;10.13;3.90;;;;;;;;;;4115625;34;20050;-94
2021/06/23 12:29:35;;;;;;;13.30;3.53;;;;;;;;;;4115191;34;20080;-94
2021/06/23 12:32:07;;;;;;;12.43;4.47;;;;;;;;;;4122649;34;20060;-93
2021/06/23 12:34:42;;;;;;;9.57;3.75;;;;;;;;;;4127971;34;20116;-96
2021/06/23 12:37:14;;;;;;;14.25;3.95;;;;;;;;;;4118714;34;20075;-96
2021/06/23 12:39:49;;;;;;;19.48;3.53;;;;;;;;;;4117608;34;20084;-96
2021/06/23 12:42:20;;;;;;;8.45;2.87;;;;;;;;;;4129770;34;20384;-95
2021/06/23 12:45:02;;;;;;;21.33;3.90;;;;;;;;;;4113209;34;20115;-95
2021/06/23 12:47:31;;;;;;;9.93;2.62;;;;;;;;;;4117157;34;20101;-95
2021/06/23 12:50:06;;;;;;;15.07;3.53;;;;;;;;;;4115721;34;20057;-95
2021/06/23 12:52:35;;;;;;;12.15;3.50;;;;;;;;;;4125089;34;20126;-95
2021/06/23 12:55:05;;;;;;;11.85;4.32;;;;;;;;;;4127024;34;20129;-95
2021/06/23 12:57:33;;;;;;;15.40;3.33;;;;;;;;;;4128169;34;20128;-95
2021/06/23 13:00:12;;;;;;;10.25;2.90;;;;;;;;;;4114844;34;20213;-95
2021/06/23 13:02:44;;;;;;;11.52;4.18;;;;;;;;;;4125011;34;20097;-95
2021/06/23 13:05:19;;;;;;;10.35;2.53;;;;;;;;;;4116017;34;20076;-95
2021/06/23 13:07:53;;;;;;;9.45;2.83;;;;;;;;;;4100632;34;20148;-94
2021/06/23 13:10:28;;;;;;;7.62;2.85;;;;;;;;;;4124024;34;20054;-95
2021/06/23 13:12:59;;;;;;;9.02;2.53;;;;;;;;;;4118635;34;20388;-95
2021/06/23 13:15:30;;;;;;;8.55;2.47;;;;;;;;;;4126130;34;20596;-95
2021/06/23 13:18:05;;;;;;;7.90;2.33;;;;;;;;;;4129685;34;20108;-94
2021/06/23 13:20:37;;;;;;;10.60;3.12;;;;;;;;;;4137814;34;20066;-96
2021/06/23 13:23:07;;;;;;;14.10;3.20;;;;;;;;;;4137907;34;20060;-94
2021/06/23 13:25:41;;;;;;;12.13;3.50;;;;;;;;;;4133920;34;20061;-95
2021/06/23 13:28:21;;;;;;;;;;;;;;;;;;;;;
2021/06/23 13:30:56;;;;;;;10.43;2.65;;;;;;;;;;4137836;34;20154;-93
2021/06/23 13:33:27;;;;;;;11.48;3.00;;;;;;;;;;4128721;34;20083;-93
2021/06/23 13:36:01;;;;;;;13.15;3.25;;;;;;;;;;4135958;34;20176;-96
2021/06/23 13:38:30;;;;;;;20.42;3.72;;;;;;;;;;4126958;34;20114;-96
2021/06/23 13:41:08;;;;;;;19.90;4.00;;;;;;;;;;4138718;34;20109;-94
2021/06/23 13:43:37;;;;;;;11.75;3.03;;;;;;;;;;4140318;34;20320;-96
2021/06/23 13:46:05;;;;;;;12.07;3.42;;;;;;;;;;4124371;34;20088;-95
2021/06/23 13:48:39;;;;;;;15.63;3.55;;;;;;;;;;4136369;34;20689;-94
2021/06/23 13:51:15;;;;;;;10.95;2.90;;;;;;;;;;4127474;34;20208;-95
2021/06/23 13:53:49;;;;;;;13.55;3.72;;;;;;;;;;4129443;34;20053;-95
2021/06/23 13:56:28;;;;;;;10.30;4.20;;;;;;;;;;4127842;34;20061;-95
2021/06/23 13:58:59;;;;;;;10.13;2.62;;;;;;;;;;4137405;34;20073;-95
2021/06/23 14:01:50;;;;;;;10.88;3.22;;;;;;;;;;4134843;34;20057;-95
2021/06/23 14:04:30;;;;;;;11.43;2.53;;;;;;;;;;4128920;34;20093;-95
2021/06/23 14:07:00;;;;;;;12.70;2.70;;;;;;;;;;4128059;34;20416;-94
2021/06/23 14:09:52;;;;;;;11.15;2.97;;;;;;;;;;4127616;34;20123;-94
2021/06/23 14:12:27;;;;;;;14.90;3.00;;;;;;;;;;4127525;34;20364;-95
2021/06/23 14:15:17;;;;;;;10.52;2.53;;;;;;;;;;4127111;34;20064;-95
2021/06/23 14:17:54;;;;;;;12.55;2.62;;;;;;;;;;4114401;34;20083;-95
2021/06/23 14:20:29;;;;;;;7.68;2.03;;;;;;;;;;4127573;34;20155;-96
2021/06/23 14:23:03;;;;;;;41.65;4.85;;;;;;;;;;4126612;34;20102;-95
2021/06/23 14:25:38;;;;;;;9.43;2.15;;;;;;;;;;4134736;34;20100;-94
2021/06/23 14:28:09;;;;;;;15.23;2.80;;;;;;;;;;4117374;34;20100;-94
2021/06/23 14:30:39;;;;;;;17.12;2.67;;;;;;;;;;4134937;34;20098;-95
2021/06/23 14:33:30;;;;;;;9.15;2.12;;;;;;;;;;4125983;34;20111;-94
2021/06/23 14:36:11;;;;;;;10.95;2.08;;;;;;;;;;4136087;34;20049;-96
2021/06/23 14:38:40;;;;;;;15.70;2.40;;;;;;;;;;4138215;34;20115;-94
2021/06/23 14:41:13;;;;;;;13.32;2.40;;;;;;;;;;4139794;34;20073;-96
2021/06/23 14:43:42;;;;;;;6.45;1.85;;;;;;;;;;4137434;34;20060;-95
2021/06/23 14:46:30;;;;;;;;;;;;;;;;;;;;;
2021/06/23 14:49:00;;;;;;;14.82;2.20;;;;;;;;;;4128835;34;20139;-93
2021/06/23 14:51:32;;;;;;;8.32;1.75;;;;;;;;;;4126900;34;20053;-95
2021/06/23 14:54:08;;;;;;;9.85;1.85;;;;;;;;;;4123940;34;20108;-92
2021/06/23 14:56:37;;;;;;;9.68;1.70;;;;;;;;;;4127569;34;20092;-96
2021/06/23 14:59:12;;;;;;;9.13;1.80;;;;;;;;;;4128226;34;20102;-94
2021/06/23 15:01:56;;;;;;;11.10;2.22;;;;;;;;;;4127644;34;20155;-93
2021/06/23 15:04:34;;;;;;;20.95;3.83;;;;;;;;;;4128180;34;20075;-94
2021/06/23 15:07:24;;;;;;;8.63;2.20;;;;;;;;;;4136022;34;20072;-96
2021/06/23 15:09:57;;;;;;;10.70;2.08;;;;;;;;;;4123723;34;20120;-96
2021/06/23 15:12:31;;;;;;;7.28;2.08;;;;;;;;;;4126487;34;20049;-95
2021/06/23 15:15:41;;;;;;;8.02;2.12;;;;;;;;;;4138948;34;20053;-96
2021/06/23 15:19:24;;;;;;;9.48;1.83;;;;;;;;;;4089502;35;20049;-95
2021/06/23 15:33:58;;;;;;;14.52;2.45;;;;;;;;;;4098458;35;20085;-96
2021/06/23 15:37:52;;;;;;;;;;;;;;;;;;;;;
2021/06/23 15:40:50;;;;;;;8.80;1.85;;;;;;;;;;4099167;35;21335;-96
2021/06/23 15:43:55;;;;;;;8.82;2.22;;;;;;;;;;4095287;35;20061;-96
2021/06/23 15:47:20;;;;;;;12.05;2.20;;;;;;;;;;4090131;35;20664;-95
2021/06/23 15:54:44;;;;;;;9.02;2.37;;;;;;;;;;4035675;35;20394;-96
2021/06/23 15:58:04;;;;;;;13.62;2.55;;;;;;;;;;4037055;35;20120;-96
2021/06/23 16:01:48;;;;;;;7.82;1.80;;;;;;;;;;4063002;35;20043;-95
2021/06/23 16:12:00;;;;;;;25.23;3.67;;;;;;;;;;4098001;34;20098;-96
2021/06/23 16:15:18;;;;;;;9.85;2.15;;;;;;;;;;4098939;35;20054;-95
2021/06/23 16:22:56;;;;;;;;;;;;;;;;;;;;;
2021/06/23 16:26:11;;;;;;;14.77;2.45;;;;;;;;;;4069263;29;20141;-84
2021/06/23 16:28:45;;;;;;;30.35;3.80;;;;;;;;;;4039738;34;20220;-84
2021/06/23 16:31:14;;;;;;;8.93;2.37;;;;;;;;;;4081339;34;20213;-83
2021/06/23 16:33:43;;;;;;;18.42;2.87;;;;;;;;;;4082064;34;20622;-84
2021/06/23 16:36:11;;;;;;;11.98;2.50;;;;;;;;;;4067698;34;20124;-86
2021/06/23 16:38:42;;;;;;;17.80;2.33;;;;;;;;;;4070870;34;20077;-84
2021/06/23 16:41:13;;;;;;;12.43;1.98;;;;;;;;;;4079260;34;20638;-85
2021/06/23 16:43:48;;;;;;;7.55;1.75;;;;;;;;;;4070758;34;20171;-83
2021/06/23 16:46:16;;;;;;;119.40;109.82;;;;;;;;;;4075934;34;20843;-83